createdAt,value
2022-10-28T00:01:23.233Z,91.68
2022-10-28T00:03:53.363Z,91.99
2022-10-28T00:06:27.901Z,92.30
2022-10-28T00:08:55.784Z,92.26
2022-10-28T00:11:32.437Z,92.08
2022-10-28T00:14:03.560Z,91.77
2022-10-28T00:16:34.584Z,91.75
2022-10-28T00:19:03.892Z,92.32
2022-10-28T00:21:37.099Z,92.11
2022-10-28T00:24:04.986Z,92.02
2022-10-28T00:26:36.331Z,92.27
2022-10-28T00:29:07.021Z,92.33
2022-10-28T00:31:36.263Z,92.45
2022-10-28T00:34:06.688Z,92.56
2022-10-28T00:36:37.468Z,92.56
2022-10-28T00:39:21.668Z,92.20
2022-10-28T00:41:52.523Z,92.48
2022-10-28T00:44:52.989Z,92.47
2022-10-28T00:47:52.558Z,92.05
2022-10-28T00:50:48.700Z,92.25
2022-10-28T00:53:26.947Z,92.57
2022-10-28T00:55:56.323Z,92.47
2022-10-28T00:58:26.397Z,92.18
2022-10-28T01:00:54.332Z,91.91
2022-10-28T01:03:21.832Z,92.26
2022-10-28T01:05:50.755Z,92.37
2022-10-28T01:08:17.961Z,92.32
2022-10-28T01:11:20.972Z,92.52
2022-10-28T01:14:17.395Z,92.67
2022-10-28T01:17:04.116Z,92.99
2022-10-28T01:20:36.088Z,92.64
2022-10-28T01:23:43.281Z,92.55
2022-10-28T01:27:02.056Z,92.24
2022-10-28T01:30:01.757Z,92.60
2022-10-28T01:33:28.082Z,92.17
2022-10-28T01:36:13.679Z,92.81
2022-10-28T01:38:59.083Z,92.35
2022-10-28T01:41:48.987Z,92.34
2022-10-28T01:44:31.807Z,92.30
2022-10-28T01:47:11.048Z,92.56
2022-10-28T01:50:24.863Z,92.56
2022-10-28T01:52:56.943Z,92.27
2022-10-28T01:55:33.806Z,92.08
2022-10-28T01:58:02.468Z,92.83
2022-10-28T02:00:31.666Z,92.20
2022-10-28T02:02:58.595Z,92.13
2022-10-28T02:05:49.450Z,92.20
2022-10-28T02:08:19.390Z,92.07
2022-10-28T02:11:11.533Z,92.18
2022-10-28T02:14:07.547Z,92.43
2022-10-28T02:17:00.686Z,92.72
2022-10-28T02:20:10.116Z,92.15
2022-10-28T02:22:51.447Z,92.22
2022-10-28T02:25:43.479Z,92.11
2022-10-28T02:28:18.178Z,92.67
2022-10-28T02:31:21.290Z,92.79
2022-10-28T02:33:55.681Z,92.43
2022-10-28T02:36:25.233Z,92.60
2022-10-28T02:38:58.273Z,92.24
2022-10-28T02:41:34.680Z,92.65
2022-10-28T02:44:08.925Z,92.35
2022-10-28T02:46:39.682Z,92.57
2022-10-28T02:49:13.263Z,92.58
2022-10-28T02:51:53.750Z,92.20
2022-10-28T02:54:26.537Z,92.16
2022-10-28T02:57:04.206Z,92.12
2022-10-28T02:59:31.104Z,91.99
2022-10-28T03:01:58.099Z,92.48
2022-10-28T03:04:25.101Z,91.84
2022-10-28T03:06:52.004Z,92.30
2022-10-28T03:09:18.887Z,91.88
2022-10-28T03:11:45.804Z,92.09
2022-10-28T03:14:14.700Z,92.33
2022-10-28T03:16:42.427Z,92.43
2022-10-28T03:21:41.205Z,92.08
2022-10-28T03:24:08.122Z,92.80
2022-10-28T03:26:35.019Z,92.51
2022-10-28T03:29:01.931Z,92.68
2022-10-28T03:31:28.854Z,91.96
2022-10-28T03:33:55.875Z,91.97
2022-10-28T03:36:22.844Z,92.37
2022-10-28T03:38:49.743Z,92.62
2022-10-28T03:41:16.708Z,92.36
2022-10-28T03:43:44.033Z,92.21
2022-10-28T03:46:10.909Z,92.52
2022-10-28T03:48:37.776Z,92.13
2022-10-28T03:51:04.989Z,92.55
2022-10-28T03:53:31.916Z,92.72
2022-10-28T03:56:00.891Z,92.50
2022-10-28T03:58:28.386Z,92.70
2022-10-28T04:00:55.932Z,92.96
2022-10-28T04:03:24.554Z,92.64
2022-10-28T04:05:51.801Z,93.65
2022-10-28T04:08:20.086Z,92.58
2022-10-28T04:10:48.030Z,92.52
2022-10-28T04:13:16.256Z,92.53
2022-10-28T04:15:43.481Z,92.68
2022-10-28T04:18:10.599Z,92.38
2022-10-28T04:20:37.795Z,92.35
2022-10-28T04:23:04.769Z,92.73
2022-10-28T04:25:31.750Z,92.42
2022-10-28T04:27:58.925Z,92.65
2022-10-28T04:30:26.082Z,92.31
2022-10-28T04:32:53.062Z,92.58
2022-10-28T04:35:19.983Z,92.63
2022-10-28T04:37:46.875Z,92.54
2022-10-28T04:40:13.880Z,92.28
2022-10-28T04:42:40.813Z,92.17
2022-10-28T04:45:09.486Z,92.66
2022-10-28T04:47:36.458Z,92.73
2022-10-28T04:50:04.838Z,92.78
2022-10-28T04:52:31.736Z,92.47
2022-10-28T04:54:58.610Z,92.20
2022-10-28T04:57:25.620Z,92.74
2022-10-28T04:59:52.483Z,93.36
2022-10-28T05:02:19.450Z,92.99
2022-10-28T05:04:46.368Z,92.86
2022-10-28T05:07:13.252Z,92.76
2022-10-28T05:09:40.111Z,92.60
2022-10-28T05:12:07.089Z,93.08
2022-10-28T05:14:33.947Z,92.51
2022-10-28T05:17:00.823Z,92.82
2022-10-28T05:19:27.760Z,92.88
2022-10-28T05:21:54.624Z,93.27
2022-10-28T05:24:21.508Z,92.71
2022-10-28T05:26:48.402Z,92.41
2022-10-28T05:29:15.278Z,93.16
2022-10-28T05:31:42.149Z,93.33
2022-10-28T05:34:09.019Z,93.00
2022-10-28T05:36:35.929Z,93.51
2022-10-28T05:39:03.007Z,92.62
2022-10-28T05:41:29.874Z,92.99
2022-10-28T05:43:57.099Z,93.09
2022-10-28T05:46:24.049Z,93.46
2022-10-28T05:48:50.921Z,93.65
2022-10-28T05:51:17.795Z,93.74
2022-10-28T05:53:44.672Z,93.45
2022-10-28T05:56:11.578Z,93.46
2022-10-28T05:58:38.940Z,93.08
2022-10-28T06:01:09.463Z,93.01
2022-10-28T06:03:36.571Z,93.06
2022-10-28T06:06:03.685Z,93.37
2022-10-28T06:08:30.645Z,92.67
2022-10-28T06:10:56.049Z,92.87
2022-10-28T06:13:23.450Z,92.94
2022-10-28T06:15:55.214Z,92.93
2022-10-28T06:18:23.391Z,93.15
2022-10-28T06:20:57.933Z,92.98
2022-10-28T06:23:27.461Z,92.79
2022-10-28T06:26:03.162Z,92.83
2022-10-28T06:28:31.052Z,93.05
2022-10-28T06:31:02.736Z,93.36
2022-10-28T06:33:31.429Z,93.29
2022-10-28T06:35:59.420Z,92.87
2022-10-28T06:38:28.060Z,93.26
2022-10-28T06:40:59.810Z,92.97
2022-10-28T06:43:26.987Z,93.95
2022-10-28T06:45:55.579Z,93.09
2022-10-28T06:48:24.777Z,93.24
2022-10-28T06:50:54.237Z,92.92
2022-10-28T06:53:21.118Z,92.93
2022-10-28T06:55:58.417Z,93.67
2022-10-28T06:58:27.230Z,93.47
2022-10-28T07:00:54.583Z,93.83
2022-10-28T07:03:21.971Z,93.37
2022-10-28T07:05:51.374Z,93.78
2022-10-28T07:08:18.351Z,93.67
2022-10-28T07:10:52.560Z,93.92
2022-10-28T07:13:19.438Z,93.54
2022-10-28T07:15:50.410Z,93.43
2022-10-28T07:18:17.342Z,93.66
2022-10-28T07:20:44.267Z,93.77
2022-10-28T07:23:11.234Z,93.06
2022-10-28T07:25:38.344Z,93.93
2022-10-28T07:28:05.667Z,92.83
2022-10-28T07:30:32.730Z,93.45
2022-10-28T07:33:01.091Z,93.25
2022-10-28T07:35:29.013Z,93.43
2022-10-28T07:37:55.999Z,93.90
2022-10-28T07:40:24.613Z,93.71
2022-10-28T07:42:52.420Z,93.64
2022-10-28T07:45:19.913Z,93.21
2022-10-28T07:47:46.912Z,93.68
2022-10-28T07:50:14.076Z,93.90
2022-10-28T07:52:41.249Z,93.67
2022-10-28T07:55:08.736Z,93.41
2022-10-28T07:57:35.835Z,93.42
2022-10-28T08:00:05.311Z,93.71
2022-10-28T08:02:32.218Z,93.53
2022-10-28T08:05:01.438Z,93.24
2022-10-28T08:07:28.818Z,93.30
2022-10-28T08:09:55.729Z,92.65
2022-10-28T08:12:22.599Z,92.61
2022-10-28T08:14:49.568Z,93.26
2022-10-28T08:17:16.870Z,92.51
2022-10-28T08:19:43.749Z,92.68
2022-10-28T08:22:10.668Z,92.81
2022-10-28T08:24:37.631Z,92.40
2022-10-28T08:27:05.231Z,93.24
2022-10-28T08:29:32.335Z,91.97
2022-10-28T08:31:59.205Z,92.53
2022-10-28T08:34:29.723Z,91.80
2022-10-28T08:36:57.607Z,91.47
2022-10-28T08:39:24.740Z,92.56
2022-10-28T08:42:34.684Z,91.40
2022-10-28T08:45:29.944Z,91.01
2022-10-28T08:48:18.100Z,91.21
2022-10-28T08:51:01.512Z,92.48
2022-10-28T08:53:46.407Z,91.85
2022-10-28T08:56:34.467Z,90.44
2022-10-28T08:59:06.137Z,90.25
2022-10-28T09:01:48.645Z,89.13
2022-10-28T09:04:40.431Z,89.99
2022-10-28T09:07:19.972Z,89.96
2022-10-28T09:09:49.374Z,90.21
2022-10-28T09:12:33.718Z,89.62
2022-10-28T09:15:18.927Z,89.75
2022-10-28T09:17:55.521Z,87.75
2022-10-28T09:20:48.719Z,89.40
2022-10-28T09:23:28.290Z,88.05
2022-10-28T09:26:09.838Z,87.87
2022-10-28T09:29:02.806Z,88.72
2022-10-28T09:31:40.230Z,87.27
2022-10-28T09:34:38.897Z,87.68
2022-10-28T09:37:49.351Z,88.48
2022-10-28T09:40:26.062Z,86.51
2022-10-28T09:43:08.209Z,88.59
2022-10-28T09:45:42.904Z,87.22
2022-10-28T09:48:20.741Z,89.05
2022-10-28T09:50:52.611Z,88.35
2022-10-28T09:53:46.372Z,88.92
2022-10-28T09:56:14.045Z,88.13
2022-10-28T09:58:48.650Z,87.49
2022-10-28T10:01:18.610Z,86.40
2022-10-28T10:03:49.699Z,86.85
2022-10-28T10:06:29.573Z,88.15
2022-10-28T10:08:57.279Z,86.62
2022-10-28T10:11:39.971Z,87.28
2022-10-28T10:14:15.298Z,87.43
2022-10-28T10:17:03.111Z,86.53
2022-10-28T10:20:20.637Z,86.56
2022-10-28T10:22:49.657Z,83.18
2022-10-28T10:25:19.343Z,87.38
2022-10-28T10:28:05.929Z,86.00
2022-10-28T10:30:46.668Z,86.68
2022-10-28T10:33:22.606Z,83.72
2022-10-28T10:36:17.441Z,84.14
2022-10-28T10:38:56.071Z,84.96
2022-10-28T10:41:40.822Z,83.84
2022-10-28T10:44:32.049Z,83.28
2022-10-28T10:47:06.275Z,80.06
2022-10-28T10:49:35.353Z,80.88
2022-10-28T10:52:10.304Z,79.72
2022-10-28T10:54:38.489Z,80.79
2022-10-28T10:57:19.731Z,82.37
2022-10-28T10:59:51.040Z,83.96
2022-10-28T11:02:27.542Z,83.63
2022-10-28T11:05:00.226Z,82.51
2022-10-28T11:07:28.677Z,80.27
2022-10-28T11:09:56.084Z,82.65
2022-10-28T11:12:35.491Z,83.69
2022-10-28T11:15:22.079Z,81.89
2022-10-28T11:18:16.831Z,81.97
2022-10-28T11:21:00.728Z,82.95
2022-10-28T11:23:54.867Z,80.44
2022-10-28T11:26:24.202Z,84.23
2022-10-28T11:29:10.279Z,84.72
2022-10-28T11:32:21.532Z,85.17
2022-10-28T11:35:29.869Z,82.99
2022-10-28T11:38:25.486Z,83.14
2022-10-28T11:41:08.461Z,85.24
2022-10-28T11:43:57.666Z,83.18
2022-10-28T11:46:53.345Z,83.78
2022-10-28T11:49:42.182Z,84.19
2022-10-28T11:52:38.979Z,84.01
2022-10-28T11:55:33.206Z,84.47
2022-10-28T11:58:42.198Z,81.57
2022-10-28T12:01:43.662Z,85.34
2022-10-28T12:04:59.406Z,85.62
2022-10-28T12:07:47.735Z,84.65
2022-10-28T12:10:25.042Z,83.15
2022-10-28T12:13:14.546Z,84.41
2022-10-28T12:15:59.484Z,86.00
2022-10-28T12:18:47.645Z,82.56
2022-10-28T12:21:40.662Z,81.28
2022-10-28T12:24:16.107Z,81.35
2022-10-28T12:26:49.155Z,82.58
2022-10-28T12:29:28.298Z,80.83
2022-10-28T12:32:14.079Z,81.60
2022-10-28T12:34:53.255Z,81.12
2022-10-28T12:37:38.662Z,80.84
2022-10-28T12:40:30.595Z,79.61
2022-10-28T12:43:26.389Z,80.33
2022-10-28T12:45:56.586Z,80.61
2022-10-28T12:48:55.089Z,78.28
2022-10-28T12:51:36.046Z,80.87
2022-10-28T12:55:02.238Z,81.46
2022-10-28T12:57:34.142Z,81.62
2022-10-28T13:00:18.591Z,81.41
2022-10-28T13:03:08.041Z,80.32
2022-10-28T13:05:52.849Z,80.50
2022-10-28T13:08:43.201Z,82.46
2022-10-28T13:11:18.983Z,82.82
2022-10-28T13:14:23.187Z,80.90
2022-10-28T13:17:30.778Z,82.30
2022-10-28T13:19:57.580Z,82.30
2022-10-28T13:22:49.558Z,80.55
2022-10-28T13:25:34.005Z,82.25
2022-10-28T13:28:01.511Z,80.78
2022-10-28T13:30:32.099Z,82.08
2022-10-28T13:33:07.373Z,80.94
2022-10-28T13:35:35.192Z,81.01
2022-10-28T13:38:03.639Z,81.81
2022-10-28T13:40:36.215Z,84.23
2022-10-28T13:43:03.149Z,82.40
2022-10-28T13:45:54.306Z,83.07
2022-10-28T13:48:30.236Z,83.87
2022-10-28T13:51:12.110Z,83.10
2022-10-28T13:53:50.376Z,81.61
2022-10-28T13:56:26.706Z,82.64
2022-10-28T13:59:16.870Z,81.35
2022-10-28T14:02:33.762Z,82.41
2022-10-28T14:05:07.364Z,81.04
2022-10-28T14:07:38.538Z,82.04
2022-10-28T14:10:22.575Z,80.51
2022-10-28T14:13:00.049Z,82.12
2022-10-28T14:15:34.715Z,82.90
2022-10-28T14:18:37.556Z,81.79
2022-10-28T14:21:01.557Z,81.17
2022-10-28T14:23:28.745Z,83.45
2022-10-28T14:25:56.112Z,81.77
2022-10-28T14:28:31.847Z,81.83
2022-10-28T14:31:11.366Z,83.52
2022-10-28T14:33:44.318Z,82.70
2022-10-28T14:36:20.082Z,81.82
2022-10-28T14:39:26.628Z,82.16
2022-10-28T14:42:27.174Z,83.59
2022-10-28T14:45:19.042Z,81.75
2022-10-28T14:48:20.075Z,83.30
2022-10-28T14:50:51.325Z,84.87
2022-10-28T14:53:32.053Z,82.84
2022-10-28T14:56:11.475Z,84.38
2022-10-28T14:58:42.466Z,83.14
2022-10-28T15:01:18.785Z,83.65
2022-10-28T15:03:59.330Z,83.98
2022-10-28T15:06:40.522Z,83.72
2022-10-28T15:09:16.485Z,84.68
2022-10-28T15:11:48.059Z,84.17
2022-10-28T15:14:28.892Z,84.22
2022-10-28T15:16:56.697Z,84.95
2022-10-28T15:19:27.243Z,83.45
2022-10-28T15:22:10.381Z,84.25
2022-10-28T15:24:38.154Z,84.76
2022-10-28T15:27:05.758Z,83.98
2022-10-28T15:29:32.937Z,85.84
2022-10-28T15:32:16.068Z,83.55
2022-10-28T15:34:44.251Z,85.27
2022-10-28T15:37:20.688Z,85.41
2022-10-28T15:39:52.218Z,84.19
2022-10-28T15:42:42.733Z,84.16
2022-10-28T15:45:19.917Z,85.23
2022-10-28T15:47:48.059Z,84.89
2022-10-28T15:50:14.944Z,84.36
2022-10-28T15:52:51.145Z,85.24
2022-10-28T15:55:35.803Z,84.33
2022-10-28T15:58:19.419Z,85.00
2022-10-28T16:00:54.421Z,84.84
2022-10-28T16:03:39.840Z,84.86
2022-10-28T16:06:30.732Z,85.21
2022-10-28T16:09:09.841Z,84.99
2022-10-28T16:11:43.714Z,85.09
2022-10-28T16:14:44.481Z,85.17
2022-10-28T16:17:24.836Z,85.25
2022-10-28T16:20:03.651Z,85.63
2022-10-28T16:22:32.625Z,86.24
2022-10-28T16:24:59.566Z,86.00
2022-10-28T16:27:32.581Z,86.31
2022-10-28T16:29:59.605Z,85.06
2022-10-28T16:32:37.902Z,86.13
2022-10-28T16:35:14.087Z,85.56
2022-10-28T16:37:44.848Z,85.65
2022-10-28T16:40:37.787Z,86.65
2022-10-28T16:43:02.114Z,85.74
2022-10-28T16:45:28.980Z,85.88
2022-10-28T16:47:56.276Z,86.87
2022-10-28T16:50:23.503Z,85.87
2022-10-28T16:52:50.448Z,86.29
2022-10-28T16:55:19.303Z,87.04
2022-10-28T16:57:46.205Z,86.16
2022-10-28T17:00:16.559Z,86.12
2022-10-28T17:02:43.489Z,87.20
2022-10-28T17:05:21.168Z,86.41
2022-10-28T17:07:48.379Z,86.29
2022-10-28T17:10:16.752Z,86.08
2022-10-28T17:12:43.647Z,86.38
2022-10-28T17:15:11.117Z,86.55
2022-10-28T17:17:38.009Z,86.16
2022-10-28T17:20:06.029Z,87.13
2022-10-28T17:22:32.985Z,85.87
2022-10-28T17:25:00.042Z,87.00
2022-10-28T17:27:26.965Z,86.45
2022-10-28T17:29:53.958Z,86.64
2022-10-28T17:32:20.971Z,86.86
2022-10-28T17:34:47.859Z,87.20
2022-10-28T17:37:14.760Z,86.80
2022-10-28T17:39:42.462Z,86.92
2022-10-28T17:42:09.974Z,87.01
2022-10-28T17:44:37.027Z,86.64
2022-10-28T17:47:04.100Z,86.62
2022-10-28T17:49:32.591Z,86.78
2022-10-28T17:51:59.523Z,86.95
2022-10-28T17:54:27.359Z,87.05
2022-10-28T17:56:54.231Z,86.72
2022-10-28T17:59:21.104Z,87.59
2022-10-28T18:01:48.147Z,87.40
2022-10-28T18:04:15.190Z,87.26
2022-10-28T18:06:42.067Z,87.55
2022-10-28T18:09:13.096Z,87.70
2022-10-28T18:11:40.755Z,87.25
2022-10-28T18:14:07.685Z,87.43
2022-10-28T18:16:37.212Z,87.33
2022-10-28T18:19:06.287Z,87.43
2022-10-28T18:21:33.776Z,87.34
2022-10-28T18:24:03.869Z,88.06
2022-10-28T18:26:33.726Z,87.72
2022-10-28T18:29:03.812Z,87.96
2022-10-28T18:31:33.090Z,87.66
2022-10-28T18:34:00.901Z,87.82
2022-10-28T18:36:33.892Z,87.90
2022-10-28T18:39:01.230Z,87.66
2022-10-28T18:41:30.248Z,87.72
2022-10-28T18:44:00.493Z,87.90
2022-10-28T18:46:29.525Z,88.11
2022-10-28T18:51:27.982Z,88.25
2022-10-28T18:53:56.472Z,87.88
2022-10-28T18:56:29.067Z,88.04
2022-10-28T18:58:57.598Z,87.92
2022-10-28T19:01:27.936Z,87.72
2022-10-28T19:04:00.800Z,87.79
2022-10-28T19:06:32.559Z,87.84
2022-10-28T19:09:05.030Z,87.47
2022-10-28T19:11:33.553Z,87.72
2022-10-28T19:14:04.957Z,87.87
2022-10-28T19:16:34.081Z,87.76
2022-10-28T19:19:03.512Z,87.69
2022-10-28T19:21:30.655Z,87.74
2022-10-28T19:23:57.876Z,87.73
2022-10-28T19:26:25.049Z,88.10
2022-10-28T19:28:52.295Z,87.57
2022-10-28T19:31:23.181Z,87.84
2022-10-28T19:33:53.128Z,87.73
2022-10-28T19:36:23.298Z,88.26
2022-10-28T19:38:53.458Z,88.69
2022-10-28T19:41:23.639Z,88.43
2022-10-28T19:43:58.924Z,88.57
2022-10-28T19:46:28.867Z,88.67
2022-10-28T19:48:59.073Z,88.53
2022-10-28T19:51:40.461Z,88.39
2022-10-28T19:54:12.983Z,88.68
2022-10-28T19:56:42.559Z,88.47
2022-10-28T19:59:09.489Z,88.66
2022-10-28T20:01:39.127Z,88.31
2022-10-28T20:04:07.565Z,88.44
2022-10-28T20:06:37.702Z,88.33
2022-10-28T20:09:05.735Z,88.40
2022-10-28T20:11:37.348Z,88.36
2022-10-28T20:14:09.417Z,88.49
2022-10-28T20:16:36.871Z,88.28
2022-10-28T20:19:04.588Z,88.22
2022-10-28T20:21:33.805Z,88.56
2022-10-28T20:24:01.019Z,88.25
2022-10-28T20:26:31.459Z,88.19
2022-10-28T20:28:59.541Z,88.04
2022-10-28T20:31:29.606Z,88.16
2022-10-28T20:34:00.480Z,88.20
2022-10-28T20:36:30.574Z,88.53
2022-10-28T20:39:08.742Z,88.00
2022-10-28T20:41:38.335Z,88.43
2022-10-28T20:44:06.596Z,88.40
2022-10-28T20:46:34.805Z,88.26
2022-10-28T20:49:02.303Z,88.12
2022-10-28T20:51:32.100Z,88.38
2022-10-28T20:54:00.044Z,88.22
2022-10-28T20:56:30.304Z,88.12
2022-10-28T20:59:00.529Z,88.29
2022-10-28T21:01:39.825Z,88.32
2022-10-28T21:04:10.451Z,88.14
2022-10-28T21:06:38.849Z,88.05
2022-10-28T21:09:06.785Z,88.16
2022-10-28T21:11:33.714Z,88.41
2022-10-28T21:14:02.271Z,88.08
2022-10-28T21:16:30.351Z,88.14
2022-10-28T21:18:59.050Z,88.32
2022-10-28T21:21:26.692Z,88.72
2022-10-28T21:23:53.654Z,88.25
2022-10-28T21:26:20.960Z,88.13
2022-10-28T21:28:52.592Z,88.41
2022-10-28T21:31:21.323Z,88.05
2022-10-28T21:36:19.802Z,88.55
2022-10-28T21:38:47.196Z,88.43
2022-10-28T21:41:22.155Z,88.64
2022-10-28T21:43:51.381Z,88.42
2022-10-28T21:46:20.017Z,88.54
2022-10-28T21:48:47.693Z,87.87
2022-10-28T21:51:16.885Z,87.92
2022-10-28T21:53:45.139Z,87.98
2022-10-28T21:56:18.235Z,88.06
2022-10-28T21:58:48.697Z,87.99
2022-10-28T22:01:20.061Z,88.44
2022-10-28T22:03:47.553Z,88.31
2022-10-28T22:06:15.095Z,88.39
2022-10-28T22:08:42.300Z,88.22
2022-10-28T22:11:15.974Z,88.36
2022-10-28T22:13:43.145Z,88.23
2022-10-28T22:16:16.963Z,88.28
2022-10-28T22:18:44.931Z,88.14
2022-10-28T22:21:16.850Z,88.78
2022-10-28T22:23:44.089Z,88.27
2022-10-28T22:26:16.098Z,88.68
2022-10-28T22:28:44.013Z,88.59
2022-10-28T22:31:14.785Z,88.28
2022-10-28T22:33:42.255Z,88.50
2022-10-28T22:36:19.203Z,88.11
2022-10-28T22:38:46.683Z,88.52
2022-10-28T22:41:15.035Z,88.93
2022-10-28T22:43:44.067Z,88.89
2022-10-28T22:46:12.153Z,88.48
2022-10-28T22:48:39.057Z,88.74
2022-10-28T22:51:06.185Z,88.36
2022-10-28T22:53:33.118Z,88.83
2022-10-28T22:56:00.003Z,88.58
2022-10-28T22:58:27.827Z,88.98
2022-10-28T23:01:03.967Z,88.87
2022-10-28T23:03:39.101Z,89.00
2022-10-28T23:06:06.653Z,88.65
2022-10-28T23:08:34.238Z,88.90
2022-10-28T23:11:01.334Z,88.77
2022-10-28T23:13:28.309Z,88.79
2022-10-28T23:15:55.331Z,89.00
2022-10-28T23:18:28.034Z,88.69
2022-10-28T23:20:54.917Z,88.46
2022-10-28T23:23:21.813Z,88.89
2022-10-28T23:25:55.094Z,88.74
2022-10-28T23:28:21.989Z,88.69
2022-10-28T23:30:49.060Z,88.63
2022-10-28T23:33:15.940Z,88.94
2022-10-28T23:35:42.968Z,88.57
2022-10-28T23:38:11.684Z,88.59
2022-10-28T23:40:38.932Z,88.69
2022-10-28T23:43:05.850Z,88.64
2022-10-28T23:45:32.702Z,88.67
2022-10-28T23:47:59.559Z,88.49
2022-10-28T23:50:26.426Z,88.71
2022-10-28T23:52:55.459Z,88.43
2022-10-28T23:55:22.652Z,88.45
2022-10-28T23:57:49.590Z,88.90
